Time,TemperatureF,DewpointF,PressureIn,WindDirection,WindDirectionDegrees,WindSpeedMPH,WindSpeedGustMPH,Humidity,HourlyPrecipIn,Conditions,Clouds,dailyrainin,SoftwareType,DateUTC
2013-07-12 00:00:00,64.7,57.0,29.97,North,5,0.0,12.0,76,0.00,,,0.00,Wunderground v.1.13,2013-07-12 04:00:00,
2013-07-12 00:30:00,64.0,55.9,29.98,North,5,1.0,1.0,75,0.00,,,0.00,Wunderground v.1.13,2013-07-12 04:30:00,
2013-07-12 01:00:00,63.4,55.7,29.98,NNE,14,0.0,12.0,76,0.00,,,0.00,Wunderground v.1.13,2013-07-12 05:00:00,
2013-07-12 01:30:00,63.1,55.0,29.99,NNE,15,2.0,12.0,75,0.00,,,0.00,Wunderground v.1.13,2013-07-12 05:30:00,
2013-07-12 02:00:00,62.4,55.4,29.99,NNE,15,0.0,12.0,78,0.00,,,0.00,Wunderground v.1.13,2013-07-12 06:00:00,
2013-07-12 02:30:00,61.8,55.9,30.00,NNE,15,0.0,12.0,81,0.00,,,0.00,Wunderground v.1.13,2013-07-12 06:30:00,
2013-07-12 03:00:00,61.0,55.8,30.00,NNE,15,0.0,12.0,83,0.00,,,0.00,Wunderground v.1.13,2013-07-12 07:00:00,
2013-07-12 03:30:00,60.2,56.0,30.00,NNE,15,0.0,12.0,86,0.00,,,0.00,Wunderground v.1.13,2013-07-12 07:30:00,
2013-07-12 04:00:00,59.8,56.2,30.02,NNE,15,0.0,12.0,88,0.00,,,0.00,Wunderground v.1.13,2013-07-12 08:00:00,
2013-07-12 04:30:00,59.3,56.4,30.02,NNE,15,0.0,12.0,90,0.00,,,0.00,Wunderground v.1.13,2013-07-12 08:30:00,
2013-07-12 05:00:00,59.0,55.8,30.03,NNE,15,0.0,12.0,89,0.00,,,0.00,Wunderground v.1.13,2013-07-12 09:00:00,
2013-07-12 05:30:00,59.2,56.0,30.05,NNE,15,0.0,12.0,89,0.00,,,0.00,Wunderground v.1.13,2013-07-12 09:30:00,
2013-07-12 06:00:00,59.2,55.6,30.05,NNE,15,0.0,12.0,88,0.00,,,0.00,Wunderground v.1.13,2013-07-12 10:00:00,
2013-07-12 06:30:00,59.8,55.9,30.06,NNE,15,1.0,1.0,87,0.00,,,0.00,Wunderground v.1.13,2013-07-12 10:30:00,
2013-07-12 07:00:00,60.9,56.7,30.08,NNE,15,0.0,12.0,86,0.00,,,0.00,Wunderground v.1.13,2013-07-12 11:00:00,
2013-07-12 07:30:00,62.7,57.1,30.09,NNE,15,2.0,2.0,82,0.00,,,0.00,Wunderground v.1.13,2013-07-12 11:30:00,
2013-07-12 08:00:00,63.7,57.8,30.08,NNE,15,1.0,1.0,81,0.00,,,0.00,Wunderground v.1.13,2013-07-12 12:00:00,
2013-07-12 08:30:00,65.6,57.1,30.09,NNE,15,2.0,2.0,74,0.00,,,0.00,Wunderground v.1.13,2013-07-12 12:30:00,
2013-07-12 09:00:00,66.8,57.5,30.10,NNE,18,1.0,12.0,72,0.00,,,0.00,Wunderground v.1.13,2013-07-12 13:00:00,
2013-07-12 09:30:00,68.6,56.8,30.10,NNE,19,1.0,12.0,66,0.00,,,0.00,Wunderground v.1.13,2013-07-12 13:30:00,
2013-07-12 10:00:00,68.3,56.9,30.11,NNE,21,3.0,3.0,67,0.00,,,0.00,Wunderground v.1.13,2013-07-12 14:00:00,
2013-07-12 10:30:00,69.6,56.9,30.11,NNE,22,3.0,12.0,64,0.00,,,0.00,Wunderground v.1.13,2013-07-12 14:30:00,
2013-07-12 11:00:00,70.3,57.1,30.11,NNE,17,3.0,3.0,63,0.00,,,0.00,Wunderground v.1.13,2013-07-12 15:00:00,
2013-07-12 11:30:00,71.6,57.0,30.11,NNE,24,2.0,2.0,60,0.00,,,0.00,Wunderground v.1.13,2013-07-12 15:30:00,
2013-07-12 12:00:00,72.8,57.2,30.11,NNE,26,2.0,12.0,58,0.00,,,0.00,Wunderground v.1.13,2013-07-12 16:00:00,
2013-07-12 12:30:00,72.5,57.4,30.10,NNE,27,2.0,12.0,59,0.00,,,0.00,Wunderground v.1.13,2013-07-12 16:30:00,
2013-07-12 13:00:00,73.2,57.5,30.10,NNE,26,3.0,12.0,58,0.00,,,0.00,Wunderground v.1.13,2013-07-12 17:00:00,
2013-07-12 13:30:00,73.7,55.5,30.09,NNE,27,3.0,3.0,53,0.00,,,0.00,Wunderground v.1.13,2013-07-12 17:30:00,
2013-07-12 14:00:00,74.6,57.4,30.09,NE,38,3.0,3.0,55,0.00,,,0.00,Wunderground v.1.13,2013-07-12 18:00:00,
2013-07-12 14:30:00,74.9,57.6,30.09,NNE,22,3.0,12.0,55,0.00,,,0.00,Wunderground v.1.13,2013-07-12 18:30:00,
2013-07-12 15:00:00,75.1,56.3,30.09,NNE,18,5.0,5.0,52,0.00,,,0.00,Wunderground v.1.13,2013-07-12 19:00:00,
2013-07-12 15:30:00,75.3,55.9,30.09,NNE,30,3.0,12.0,51,0.00,,,0.00,Wunderground v.1.13,2013-07-12 19:30:00,
2013-07-12 16:30:00,76.5,54.2,30.08,NNE,28,3.0,12.0,46,0.00,,,0.00,Wunderground v.1.13,2013-07-12 20:30:00,
2013-07-12 17:00:00,76.5,55.3,30.08,NNE,26,3.0,12.0,48,0.00,,,0.00,Wunderground v.1.13,2013-07-12 21:00:00,
2013-07-12 17:30:00,76.8,53.2,30.08,NE,54,2.0,2.0,44,0.00,,,0.00,Wunderground v.1.13,2013-07-12 21:30:00,
2013-07-12 18:00:00,76.3,53.4,30.08,NE,42,2.0,2.0,45,0.00,,,0.00,Wunderground v.1.13,2013-07-12 22:00:00,
2013-07-12 19:30:00,74.2,53.8,30.07,NE,38,1.0,1.0,49,0.00,,,0.00,Wunderground v.1.13,2013-07-12 23:30:00,
2013-07-12 20:00:00,71.5,55.9,30.07,NE,38,0.0,12.0,58,0.00,,,0.00,Wunderground v.1.13,2013-07-13 00:00:00,
2013-07-12 21:00:00,67.8,59.6,30.08,NE,38,0.0,12.0,75,0.00,,,0.00,Wunderground v.1.13,2013-07-13 01:00:00,
2013-07-12 22:00:00,65.2,58.2,30.10,NE,38,0.0,12.0,78,0.00,,,0.00,Wunderground v.1.13,2013-07-13 02:00:00,
2013-07-12 22:30:00,64.2,56.8,30.11,NE,38,0.0,12.0,77,0.00,,,0.00,Wunderground v.1.13,2013-07-13 02:30:00,
2013-07-12 23:00:00,63.9,59.3,30.11,NE,38,0.0,12.0,85,0.00,,,0.00,Wunderground v.1.13,2013-07-13 03:00:00,